createdAt,value
2022-11-29T00:02:02.477Z,6.10
2022-11-29T00:04:30.991Z,4.27
2022-11-29T00:07:08.379Z,7.70
2022-11-29T00:09:38.039Z,4.87
2022-11-29T00:12:15.722Z,5.53
2022-11-29T00:14:58.174Z,12.70
2022-11-29T00:17:26.577Z,6.90
2022-11-29T00:19:56.350Z,5.37
2022-11-29T00:22:31.347Z,9.83
2022-11-29T00:25:13.454Z,4.67
2022-11-29T00:27:55.151Z,7.17
2022-11-29T00:30:31.165Z,4.80
2022-11-29T00:32:59.911Z,7.13
2022-11-29T00:35:28.319Z,5.10
2022-11-29T00:37:56.608Z,8.60
2022-11-29T00:40:25.026Z,4.73
2022-11-29T00:42:53.297Z,6.77
2022-11-29T00:45:21.551Z,8.93
2022-11-29T00:47:51.387Z,6.80
2022-11-29T00:50:20.251Z,3.83
2022-11-29T00:52:48.833Z,7.40
2022-11-29T00:55:17.227Z,6.00
2022-11-29T00:57:45.450Z,8.60
2022-11-29T01:00:17.735Z,10.97
2022-11-29T01:02:46.189Z,7.40
2022-11-29T01:05:16.246Z,4.97
2022-11-29T01:07:54.231Z,7.60
2022-11-29T01:10:22.541Z,6.87
2022-11-29T01:12:52.619Z,4.30
2022-11-29T01:15:22.169Z,9.60
2022-11-29T01:17:59.891Z,5.20
2022-11-29T01:20:38.886Z,5.53
2022-11-29T01:23:15.683Z,8.07
2022-11-29T01:25:58.200Z,6.60
2022-11-29T01:28:49.608Z,5.70
2022-11-29T01:31:30.276Z,4.73
2022-11-29T01:34:09.066Z,9.50
2022-11-29T02:44:43.770Z,6.97
2022-11-29T02:51:02.087Z,5.60
2022-11-29T02:53:46.416Z,4.13
2022-11-29T02:56:26.601Z,10.00
2022-11-29T02:59:07.554Z,6.40
2022-11-29T03:01:45.161Z,5.93
2022-11-29T03:04:27.218Z,4.70
2022-11-29T03:07:00.286Z,5.90
2022-11-29T03:09:40.679Z,7.43
2022-11-29T03:12:33.729Z,3.03
2022-11-29T03:18:24.874Z,3.10
2022-11-29T03:21:13.009Z,7.83
2022-11-29T03:23:48.537Z,4.47
2022-11-29T03:26:22.189Z,6.87
2022-11-29T03:28:56.940Z,8.03
2022-11-29T03:31:32.662Z,4.53
2022-11-29T03:34:12.312Z,4.00
2022-11-29T03:36:48.125Z,3.80
2022-11-29T03:39:22.361Z,6.50
2022-11-29T03:41:54.682Z,3.90
2022-11-29T03:44:33.304Z,6.63
2022-11-29T03:47:09.004Z,5.60
2022-11-29T03:49:55.950Z,6.60
2022-11-29T03:52:30.281Z,9.60
2022-11-29T03:55:11.657Z,7.37
2022-11-29T03:57:47.984Z,7.30
2022-11-29T04:00:18.220Z,9.20
2022-11-29T04:03:13.651Z,8.63
2022-11-29T04:06:18.495Z,2.63
2022-11-29T04:09:19.558Z,3.73
2022-11-29T04:12:36.613Z,4.03
2022-11-29T04:15:51.989Z,4.73
2022-11-29T04:18:58.199Z,3.70
2022-11-29T04:21:44.001Z,2.97
2022-11-29T04:24:57.398Z,2.17
2022-11-29T04:27:48.803Z,2.60
2022-11-29T04:30:21.601Z,2.47
2022-11-29T04:33:26.026Z,7.63
2022-11-29T04:36:20.925Z,4.40
2022-11-29T04:39:08.138Z,3.50
2022-11-29T04:42:10.111Z,5.77
2022-11-29T04:45:24.533Z,3.50
2022-11-29T04:48:00.565Z,4.50
2022-11-29T04:50:44.298Z,3.80
2022-11-29T04:53:47.437Z,6.30
2022-11-29T04:56:24.644Z,3.93
2022-11-29T04:59:00.717Z,2.33
2022-11-29T05:01:44.337Z,3.77
2022-11-29T05:04:20.714Z,2.83
2022-11-29T05:07:03.402Z,3.17
2022-11-29T05:09:48.891Z,2.30
2022-11-29T05:12:27.549Z,3.17
2022-11-29T05:15:18.827Z,2.07
2022-11-29T05:17:58.082Z,2.50
2022-11-29T05:20:43.347Z,6.53
2022-11-29T05:23:31.209Z,3.40
2022-11-29T05:26:06.473Z,2.07
2022-11-29T05:28:45.153Z,3.27
2022-11-29T05:31:25.927Z,4.67
2022-11-29T05:34:29.015Z,3.20
2022-11-29T05:37:08.804Z,3.07
2022-11-29T05:39:49.925Z,2.30
2022-11-29T05:43:06.226Z,4.00
2022-11-29T05:45:42.489Z,2.27
2022-11-29T05:48:18.739Z,1.73
2022-11-29T05:50:51.666Z,2.37
2022-11-29T05:53:26.474Z,1.70
2022-11-29T05:56:04.096Z,6.63
2022-11-29T05:58:47.765Z,2.00
2022-11-29T06:01:22.822Z,1.40
2022-11-29T06:03:58.393Z,6.30
2022-11-29T06:06:35.750Z,1.80
2022-11-29T06:09:12.711Z,1.80
2022-11-29T06:11:45.818Z,4.60
2022-11-29T06:14:29.937Z,1.93
2022-11-29T06:17:26.853Z,2.00
2022-11-29T06:20:09.246Z,1.37
2022-11-29T06:22:58.478Z,2.47
2022-11-29T06:25:47.481Z,1.77
2022-11-29T06:28:26.787Z,1.93
2022-11-29T06:31:01.176Z,3.83
2022-11-29T06:33:39.129Z,4.40
2022-11-29T06:36:18.055Z,2.57
2022-11-29T06:38:46.756Z,2.30
2022-11-29T06:41:20.157Z,3.63
2022-11-29T06:43:49.024Z,2.33
2022-11-29T06:46:26.015Z,2.47
2022-11-29T06:49:02.789Z,2.63
2022-11-29T06:51:36.030Z,3.70
2022-11-29T06:54:17.016Z,2.37
2022-11-29T06:56:53.276Z,5.03
2022-11-29T06:59:36.818Z,4.50
2022-11-29T07:02:19.674Z,1.40
2022-11-29T07:05:03.031Z,1.40
2022-11-29T07:07:31.615Z,1.67
2022-11-29T07:10:00.710Z,2.00
2022-11-29T07:12:29.490Z,1.53
2022-11-29T07:14:58.216Z,3.47
2022-11-29T07:17:31.848Z,3.17
2022-11-29T07:20:11.143Z,3.90
2022-11-29T07:22:54.999Z,1.97
2022-11-29T07:25:31.788Z,2.20
2022-11-29T07:28:09.440Z,1.80
2022-11-29T07:30:47.299Z,1.83
2022-11-29T07:33:24.714Z,1.73
2022-11-29T07:36:04.348Z,2.03
2022-11-29T07:38:41.256Z,3.07
2022-11-29T07:41:19.606Z,1.70
2022-11-29T07:44:04.034Z,1.97
2022-11-29T07:46:32.286Z,2.80
2022-11-29T07:49:01.510Z,3.50
2022-11-29T07:51:32.341Z,2.97
2022-11-29T07:54:01.217Z,6.00
2022-11-29T07:56:29.454Z,5.23
2022-11-29T07:58:57.608Z,2.20
2022-11-29T08:01:27.031Z,3.27
2022-11-29T08:03:55.277Z,3.20
2022-11-29T08:06:26.441Z,4.30
2022-11-29T08:09:01.009Z,4.63
2022-11-29T08:11:30.391Z,6.73
2022-11-29T08:14:00.852Z,5.30
2022-11-29T08:16:29.053Z,2.80
2022-11-29T08:19:07.675Z,4.50
2022-11-29T08:21:35.996Z,3.30
2022-11-29T08:24:08.873Z,6.73
2022-11-29T08:27:04.078Z,5.13
2022-11-29T08:29:39.301Z,5.47
2022-11-29T08:32:09.089Z,7.20
2022-11-29T08:34:37.408Z,3.60
2022-11-29T08:37:09.915Z,5.03
2022-11-29T08:39:39.593Z,21.27
2022-11-29T08:42:07.704Z,5.47
2022-11-29T08:44:35.838Z,13.37
2022-11-29T08:47:21.400Z,5.87
2022-11-29T08:50:04.841Z,12.63
2022-11-29T08:52:51.812Z,12.83
2022-11-29T08:55:23.069Z,6.40
2022-11-29T08:57:54.792Z,7.43
2022-11-29T09:00:23.150Z,8.30
2022-11-29T09:02:51.348Z,5.60
2022-11-29T09:05:22.093Z,4.60
2022-11-29T09:07:50.473Z,4.43
2022-11-29T09:10:22.103Z,5.30
2022-11-29T09:12:51.399Z,5.57
2022-11-29T09:15:25.819Z,4.63
2022-11-29T09:17:54.094Z,4.63
2022-11-29T09:20:25.439Z,6.67
2022-11-29T09:22:53.619Z,7.07
2022-11-29T09:25:28.369Z,4.73
2022-11-29T09:28:05.751Z,3.13
2022-11-29T09:30:38.343Z,4.03
2022-11-29T09:33:08.361Z,6.30
2022-11-29T09:35:36.533Z,4.10
2022-11-29T09:38:14.275Z,4.40
2022-11-29T09:40:49.599Z,5.07
2022-11-29T09:43:38.249Z,3.80
2022-11-29T09:46:18.351Z,4.30
2022-11-29T09:49:11.575Z,4.90
2022-11-29T09:51:49.272Z,8.10
2022-11-29T09:54:29.916Z,5.90
2022-11-29T09:56:59.756Z,4.30
2022-11-29T09:59:32.329Z,3.63
2022-11-29T10:02:06.913Z,4.40
2022-11-29T10:04:40.365Z,5.10
2022-11-29T10:07:18.453Z,2.67
2022-11-29T10:09:50.077Z,3.00
2022-11-29T10:12:24.943Z,2.70
2022-11-29T10:15:05.376Z,3.17
2022-11-29T10:17:38.444Z,1.97
2022-11-29T10:20:16.269Z,4.87
2022-11-29T10:22:53.355Z,1.97
2022-11-29T10:25:26.657Z,3.80
2022-11-29T10:27:56.367Z,3.13
2022-11-29T10:30:24.676Z,5.40
2022-11-29T10:33:03.326Z,4.20
2022-11-29T10:35:31.450Z,3.63
2022-11-29T10:40:55.697Z,2.20
2022-11-29T10:43:25.926Z,2.07
2022-11-29T10:45:56.380Z,2.10
2022-11-29T10:48:28.427Z,2.50
2022-11-29T10:50:56.846Z,2.50
2022-11-29T10:53:29.500Z,3.17
2022-11-29T10:56:02.539Z,3.43
2022-11-29T10:58:32.602Z,1.97
2022-11-29T11:01:02.650Z,6.27
2022-11-29T11:03:39.477Z,4.13
2022-11-29T11:06:11.937Z,2.40
2022-11-29T11:08:43.363Z,1.47
2022-11-29T11:11:12.724Z,2.70
2022-11-29T11:13:43.007Z,3.83
2022-11-29T11:16:19.921Z,2.20
2022-11-29T11:18:49.199Z,1.50
2022-11-29T11:21:20.087Z,3.53
2022-11-29T11:23:55.470Z,1.40
2022-11-29T11:26:25.068Z,2.30
2022-11-29T11:29:00.850Z,3.47
2022-11-29T11:31:32.533Z,1.43
2022-11-29T11:34:26.179Z,1.30
2022-11-29T11:36:54.512Z,2.40
2022-11-29T11:39:23.898Z,1.63
2022-11-29T11:42:21.818Z,2.33
2022-11-29T11:44:53.502Z,1.53
2022-11-29T11:47:24.327Z,1.47
2022-11-29T11:49:57.144Z,1.87
2022-11-29T11:52:29.023Z,1.90
2022-11-29T11:55:02.115Z,1.57
2022-11-29T11:57:32.400Z,1.40
2022-11-29T12:00:06.920Z,2.40
2022-11-29T12:02:39.308Z,2.80
2022-11-29T12:05:14.404Z,1.10
2022-11-29T12:10:37.422Z,1.00
2022-11-29T12:13:06.260Z,3.23
2022-11-29T12:15:50.421Z,1.60
2022-11-29T12:18:25.686Z,0.80
2022-11-29T12:20:58.261Z,2.30
2022-11-29T12:23:35.431Z,1.03
2022-11-29T12:26:07.989Z,2.70
2022-11-29T12:28:40.122Z,0.93
2022-11-29T12:31:23.945Z,1.10
2022-11-29T12:34:04.065Z,3.93
2022-11-29T12:36:39.098Z,2.77
2022-11-29T12:39:22.486Z,2.77
2022-11-29T12:41:56.901Z,2.30
2022-11-29T12:44:39.632Z,3.23
2022-11-29T12:47:36.099Z,3.53
2022-11-29T12:50:23.089Z,1.10
2022-11-29T12:53:01.968Z,1.20
2022-11-29T12:55:38.218Z,1.37
2022-11-29T12:58:15.218Z,15.73
2022-11-29T13:00:52.648Z,4.70
2022-11-29T13:03:28.250Z,2.00
2022-11-29T13:06:07.521Z,1.93
2022-11-29T13:09:03.968Z,4.83
2022-11-29T13:11:45.418Z,5.70
2022-11-29T13:14:42.000Z,2.37
2022-11-29T13:17:22.401Z,1.97
2022-11-29T13:19:56.259Z,4.63
2022-11-29T13:22:30.575Z,2.17
2022-11-29T13:25:01.622Z,2.20
2022-11-29T13:27:41.709Z,1.73
2022-11-29T13:30:15.822Z,1.60
2022-11-29T13:32:53.588Z,4.73
2022-11-29T13:35:28.689Z,4.83
2022-11-29T13:38:02.371Z,5.60
2022-11-29T13:40:38.909Z,3.83
2022-11-29T13:43:18.857Z,3.23
2022-11-29T13:45:53.885Z,3.43
2022-11-29T13:48:32.889Z,4.60
2022-11-29T13:51:24.446Z,7.80
2022-11-29T13:53:54.169Z,3.93
2022-11-29T13:56:36.161Z,3.50
2022-11-29T13:59:08.880Z,4.00
2022-11-29T14:01:48.340Z,5.93
2022-11-29T14:04:26.471Z,5.00
2022-11-29T14:07:07.201Z,5.37
2022-11-29T14:09:46.283Z,7.83
2022-11-29T14:12:37.740Z,5.50
2022-11-29T14:15:18.741Z,6.07
2022-11-29T14:17:55.249Z,7.03
2022-11-29T14:20:57.735Z,9.13
2022-11-29T14:23:37.244Z,6.17
2022-11-29T14:26:35.333Z,9.20
2022-11-29T14:29:35.015Z,8.90
2022-11-29T14:32:05.092Z,6.80
2022-11-29T14:34:47.114Z,6.93
2022-11-29T14:37:34.796Z,3.60
2022-11-29T14:40:13.358Z,9.13
2022-11-29T14:42:48.401Z,7.00
2022-11-29T14:45:24.943Z,6.00
2022-11-29T14:47:54.621Z,6.47
2022-11-29T14:50:37.498Z,10.20
2022-11-29T14:53:08.234Z,8.47
2022-11-29T14:55:38.352Z,5.60
2022-11-29T14:58:22.393Z,6.53
2022-11-29T15:01:08.107Z,5.03
2022-11-29T15:03:48.592Z,5.87
2022-11-29T15:06:25.617Z,6.10
2022-11-29T15:09:01.919Z,4.13
2022-11-29T15:11:44.455Z,6.10
2022-11-29T15:14:20.502Z,8.70
2022-11-29T15:17:16.846Z,9.43
2022-11-29T15:20:00.201Z,7.90
2022-11-29T15:22:32.139Z,9.67
2022-11-29T15:25:11.191Z,11.53
2022-11-29T15:27:49.994Z,6.53
2022-11-29T15:33:24.483Z,11.97
2022-11-29T15:35:56.569Z,7.97
2022-11-29T15:38:25.538Z,6.60
2022-11-29T15:40:56.561Z,11.83
2022-11-29T15:43:30.319Z,12.30
2022-11-29T15:45:59.849Z,9.70
2022-11-29T15:48:37.734Z,9.57
2022-11-29T15:51:18.172Z,9.10
2022-11-29T15:53:49.494Z,13.17
2022-11-29T15:56:23.281Z,12.10
2022-11-29T15:58:53.204Z,10.23
2022-11-29T16:01:22.760Z,12.20
2022-11-29T16:03:55.798Z,11.47
2022-11-29T16:06:29.913Z,8.33
2022-11-29T16:08:58.190Z,12.03
2022-11-29T16:11:28.859Z,11.17
2022-11-29T16:14:05.197Z,9.33
2022-11-29T16:16:35.639Z,16.93
2022-11-29T16:19:23.741Z,12.10
2022-11-29T16:22:10.100Z,13.47
2022-11-29T16:24:39.647Z,16.57
2022-11-29T16:27:08.859Z,16.17
2022-11-29T16:29:39.643Z,21.47
2022-11-29T16:32:17.057Z,14.77
2022-11-29T16:34:45.860Z,26.90
2022-11-29T16:37:20.059Z,23.40
2022-11-29T16:39:53.490Z,19.77
2022-11-29T16:42:26.164Z,30.87
2022-11-29T16:45:23.818Z,15.17
2022-11-29T16:47:58.090Z,12.83
2022-11-29T16:50:28.430Z,21.87
2022-11-29T16:53:18.147Z,23.50
2022-11-29T16:55:46.178Z,21.33
2022-11-29T16:58:14.563Z,11.43
2022-11-29T17:00:50.305Z,18.93
2022-11-29T17:03:18.834Z,19.73
2022-11-29T17:05:48.135Z,15.70
2022-11-29T17:08:19.758Z,14.93
2022-11-29T17:10:47.929Z,15.83
2022-11-29T17:13:16.060Z,24.80
2022-11-29T17:15:44.105Z,12.37
2022-11-29T17:18:12.141Z,12.87
2022-11-29T17:20:40.288Z,18.20
2022-11-29T17:23:08.341Z,10.97
2022-11-29T17:25:38.030Z,12.67
2022-11-29T17:28:06.312Z,22.03
2022-11-29T17:30:34.754Z,10.33
2022-11-29T17:33:02.821Z,15.70
2022-11-29T17:35:30.941Z,18.87
2022-11-29T17:38:00.203Z,10.47
2022-11-29T17:40:28.299Z,15.70
2022-11-29T17:42:57.924Z,16.27
2022-11-29T17:45:27.037Z,16.00
2022-11-29T17:47:56.343Z,15.43
2022-11-29T17:50:24.406Z,16.53
2022-11-29T17:52:52.467Z,18.93
2022-11-29T17:55:21.439Z,17.37
2022-11-29T17:57:52.089Z,15.47
2022-11-29T18:00:22.500Z,17.87
2022-11-29T18:02:54.116Z,17.60
2022-11-29T18:05:22.305Z,18.37
2022-11-29T18:07:59.391Z,15.10
2022-11-29T18:10:29.304Z,12.93
2022-11-29T18:13:00.189Z,21.10
2022-11-29T18:15:29.644Z,17.43
2022-11-29T18:18:03.594Z,21.20
2022-11-29T18:20:39.194Z,31.53
2022-11-29T18:23:08.302Z,17.73
2022-11-29T18:25:40.517Z,22.33
2022-11-29T18:28:11.256Z,17.17
2022-11-29T18:30:43.503Z,20.00
2022-11-29T18:33:11.612Z,19.10
2022-11-29T18:35:39.635Z,24.63
2022-11-29T18:38:15.211Z,18.87
2022-11-29T18:40:45.797Z,19.23
2022-11-29T18:43:18.544Z,23.83
2022-11-29T18:45:48.349Z,28.43
2022-11-29T18:48:16.430Z,20.23
2022-11-29T18:50:44.557Z,20.67
2022-11-29T18:53:13.756Z,28.83
2022-11-29T18:55:42.223Z,22.23
2022-11-29T18:58:25.145Z,13.73
2022-11-29T19:01:09.738Z,13.43
2022-11-29T19:03:44.658Z,19.27
2022-11-29T19:06:14.526Z,16.80
2022-11-29T19:08:51.349Z,21.27
2022-11-29T19:11:22.125Z,16.30
2022-11-29T19:13:58.694Z,13.17
2022-11-29T19:16:31.011Z,16.50
2022-11-29T19:19:02.234Z,24.77
2022-11-29T19:22:02.381Z,11.50
2022-11-29T19:24:44.621Z,11.90
2022-11-29T19:27:31.013Z,22.67
2022-11-29T19:29:59.832Z,14.53
2022-11-29T19:32:29.950Z,16.67
2022-11-29T19:35:08.944Z,16.33
2022-11-29T19:37:42.160Z,15.50
2022-11-29T19:40:12.396Z,18.77
2022-11-29T19:42:45.840Z,21.27
2022-11-29T19:45:17.413Z,18.80
2022-11-29T19:48:03.882Z,27.27
2022-11-29T19:50:34.402Z,18.37
2022-11-29T19:53:17.937Z,18.00
2022-11-29T19:55:46.282Z,13.80
2022-11-29T19:58:14.551Z,18.10
2022-11-29T20:00:42.950Z,22.40
2022-11-29T20:03:15.383Z,19.13
2022-11-29T20:06:09.904Z,26.10
2022-11-29T20:09:28.850Z,18.10
2022-11-29T20:11:59.549Z,27.73
2022-11-29T20:14:28.192Z,18.60
2022-11-29T20:16:56.852Z,17.83
2022-11-29T20:19:27.002Z,16.33
2022-11-29T20:21:55.617Z,17.50
2022-11-29T20:24:24.291Z,15.47
2022-11-29T20:27:03.379Z,13.50
2022-11-29T20:29:44.188Z,17.90
2022-11-29T20:32:13.257Z,17.30
2022-11-29T20:34:49.868Z,16.50
2022-11-29T20:37:36.068Z,20.23
2022-11-29T20:40:17.523Z,9.53
2022-11-29T20:42:59.083Z,15.43
2022-11-29T20:45:29.133Z,12.93
2022-11-29T20:48:23.456Z,20.50
2022-11-29T20:50:58.142Z,15.13
2022-11-29T20:53:37.606Z,17.20
2022-11-29T20:56:07.424Z,21.80
2022-11-29T20:58:36.158Z,16.13
2022-11-29T21:01:07.596Z,22.20
2022-11-29T21:03:39.024Z,23.63
2022-11-29T21:06:10.696Z,11.50
2022-11-29T21:08:39.170Z,23.20
2022-11-29T21:11:10.380Z,18.10
2022-11-29T21:13:46.984Z,13.87
2022-11-29T21:16:18.761Z,18.30
2022-11-29T21:18:49.943Z,17.73
2022-11-29T21:21:34.228Z,12.97
2022-11-29T21:24:28.804Z,20.60
2022-11-29T21:33:22.187Z,16.60
2022-11-29T21:35:54.151Z,15.40
2022-11-29T21:38:30.810Z,16.47
2022-11-29T21:41:02.682Z,13.30
2022-11-29T21:44:05.423Z,11.13
2022-11-29T21:46:38.789Z,10.47
2022-11-29T21:49:08.932Z,12.40
2022-11-29T21:51:37.211Z,14.13
2022-11-29T21:54:08.653Z,11.07
2022-11-29T21:56:37.112Z,20.23
2022-11-29T21:59:06.126Z,14.23
2022-11-29T22:01:35.138Z,13.23
2022-11-29T22:04:12.912Z,11.47
2022-11-29T22:06:41.186Z,15.60
2022-11-29T22:09:16.256Z,16.67
2022-11-29T22:11:46.290Z,18.33
2022-11-29T22:14:18.597Z,22.37
2022-11-29T22:16:51.311Z,19.07
2022-11-29T22:19:22.866Z,17.57
2022-11-29T22:21:52.633Z,19.00
2022-11-29T22:24:24.423Z,19.50
2022-11-29T22:26:54.372Z,20.67
2022-11-29T22:29:22.953Z,17.90
2022-11-29T22:31:53.248Z,17.63
2022-11-29T22:34:25.399Z,17.20
2022-11-29T22:37:13.165Z,16.57
2022-11-29T22:40:00.774Z,24.70
2022-11-29T22:42:29.087Z,25.37
2022-11-29T22:45:03.938Z,24.60
2022-11-29T22:47:48.287Z,23.20
2022-11-29T22:50:25.850Z,23.67
2022-11-29T22:53:10.858Z,19.13
2022-11-29T22:55:50.677Z,21.83
2022-11-29T22:58:37.268Z,21.60
2022-11-29T23:01:24.088Z,22.10
2022-11-29T23:03:57.542Z,18.60
2022-11-29T23:06:29.860Z,23.07
2022-11-29T23:09:20.340Z,19.10
2022-11-29T23:11:56.978Z,18.77
2022-11-29T23:14:26.247Z,20.27
2022-11-29T23:17:32.710Z,20.53
2022-11-29T23:20:07.044Z,21.50
2022-11-29T23:22:45.714Z,18.40
2022-11-29T23:26:03.088Z,18.83
2022-11-29T23:29:09.381Z,15.83
2022-11-29T23:32:16.629Z,14.90
2022-11-29T23:34:50.818Z,20.17
2022-11-29T23:37:40.225Z,11.90
2022-11-29T23:40:14.536Z,12.87
2022-11-29T23:42:47.501Z,18.63
2022-11-29T23:45:37.033Z,13.13
2022-11-29T23:48:18.487Z,13.37
2022-11-29T23:50:48.350Z,18.97
2022-11-29T23:53:21.956Z,17.27
2022-11-29T23:56:17.869Z,14.20
2022-11-29T23:58:55.979Z,20.03
